LOWG/GRZ METAR and TAF weather

Enter ICAO airport designator
Station Type Date Time Source
LOWG METAR 2019/08/22 15:50 UTC NOAA

LOWG 221550Z 17003KT 140V200 9999 FEW045 BKN053 21/13 Q1024 NOSIG


Station Type Date Time Source
LOWG Decoded METAR 2019/08/22 15:50 UTC NOAA

Station name not available
Aug 22, 2019 - 11:50 AM EDT / 2019.08.22 1550 UTC
Wind: from the S (170 degrees) at 3 MPH (3 KT) (direction variable):0
Visibility: greater than 7 mile(s):0
Sky conditions: mostly cloudy
Temperature: 69 F (21 C)
Dew Point: 55 F (13 C)
Relative Humidity: 60%
Pressure (altimeter): 30.24 in. Hg (1024 hPa)
ob: LOWG 221550Z 17003KT 140V200 9999 FEW045 BKN053 21/13 Q1024 NOSIG
cycle: 16

Station Type Date Time Source
LOWG TAF 2019/08/22 12:21 UTC NOAA

TAF TAF LOWG 221115Z 2212/2312 15005KT 9999 FEW050 BKN060 TX23/2214Z TN18/2302Z
TEMPO 2212/2219 FEW050CB SCT120 BKN250
TEMPO 2301/2304 SHRA FEW050TCU BKN060 PROB30
TEMPO 2309/2312 SHRA FEW040CB BKN050

Example: see airport list